createdAt,value
2023-01-07T00:01:45.893Z,25.52
2023-01-07T00:04:15.662Z,25.25
2023-01-07T00:06:44.750Z,25.33
2023-01-07T00:09:18.760Z,25.08
2023-01-07T00:14:14.124Z,25.42
2023-01-07T00:16:41.729Z,26.52
2023-01-07T00:19:12.782Z,25.80
2023-01-07T00:21:39.970Z,25.50
2023-01-07T00:24:07.665Z,25.45
2023-01-07T00:26:37.420Z,25.05
2023-01-07T00:29:06.044Z,25.05
2023-01-07T00:31:38.568Z,25.85
2023-01-07T00:34:06.059Z,25.90
2023-01-07T00:36:37.775Z,26.55
2023-01-07T00:39:15.090Z,25.50
2023-01-07T00:42:02.453Z,26.27
2023-01-07T00:44:30.601Z,25.27
2023-01-07T00:46:58.772Z,25.15
2023-01-07T00:49:26.233Z,26.02
2023-01-07T00:51:53.555Z,25.63
2023-01-07T00:54:20.560Z,24.83
2023-01-07T00:56:47.579Z,24.60
2023-01-07T00:59:14.527Z,24.42
2023-01-07T01:01:50.791Z,24.83
2023-01-07T01:04:17.857Z,25.38
2023-01-07T01:06:44.841Z,25.48
2023-01-07T01:09:12.345Z,24.80
2023-01-07T01:11:39.561Z,24.73
2023-01-07T01:14:06.586Z,25.27
2023-01-07T01:16:33.608Z,25.08
2023-01-07T01:19:00.601Z,26.13
2023-01-07T01:21:27.597Z,25.10
2023-01-07T01:23:54.615Z,26.02
2023-01-07T01:26:21.792Z,25.50
2023-01-07T01:28:48.729Z,25.83
2023-01-07T01:31:15.769Z,25.45
2023-01-07T01:33:42.758Z,24.58
2023-01-07T01:36:12.096Z,26.20
2023-01-07T01:38:39.329Z,26.10
2023-01-07T01:41:07.178Z,26.42
2023-01-07T01:43:36.553Z,25.85
2023-01-07T01:46:10.444Z,26.05
2023-01-07T01:48:41.927Z,26.42
2023-01-07T01:51:10.632Z,25.95
2023-01-07T01:53:38.228Z,25.65
2023-01-07T01:56:13.059Z,26.48
2023-01-07T01:58:45.567Z,25.85
2023-01-07T02:01:13.366Z,26.00
2023-01-07T02:03:40.394Z,26.90
2023-01-07T02:06:13.271Z,26.80
2023-01-07T02:08:40.240Z,26.48
2023-01-07T02:11:07.357Z,26.20
2023-01-07T02:13:43.340Z,26.80
2023-01-07T02:16:30.496Z,25.85
2023-01-07T02:19:28.959Z,27.92
2023-01-07T02:22:04.935Z,26.77
2023-01-07T02:24:43.541Z,27.42
2023-01-07T02:27:21.029Z,27.08
2023-01-07T02:30:06.308Z,26.50
2023-01-07T02:32:58.321Z,25.95
2023-01-07T02:35:52.849Z,25.30
2023-01-07T02:38:31.857Z,25.63
2023-01-07T02:41:07.750Z,25.98
2023-01-07T02:43:50.380Z,25.85
2023-01-07T02:46:43.512Z,24.83
2023-01-07T02:49:14.202Z,25.23
2023-01-07T02:51:41.819Z,25.15
2023-01-07T02:54:15.380Z,24.00
2023-01-07T02:57:22.194Z,25.13
2023-01-07T03:00:13.524Z,24.27
2023-01-07T03:02:53.791Z,24.60
2023-01-07T03:05:35.722Z,24.42
2023-01-07T03:08:44.690Z,24.25
2023-01-07T03:11:12.442Z,24.08
2023-01-07T03:13:43.452Z,24.50
2023-01-07T03:16:23.334Z,24.15
2023-01-07T03:18:58.768Z,24.58
2023-01-07T03:21:27.317Z,24.35
2023-01-07T03:23:56.855Z,24.30
2023-01-07T03:26:30.128Z,23.42
2023-01-07T03:29:00.681Z,24.98
2023-01-07T03:31:29.578Z,24.33
2023-01-07T03:34:04.044Z,27.85
2023-01-07T03:36:37.732Z,25.15
2023-01-07T03:39:07.453Z,23.55
2023-01-07T03:41:53.038Z,23.60
2023-01-07T03:44:19.975Z,23.38
2023-01-07T03:46:47.226Z,23.95
2023-01-07T03:49:14.374Z,24.38
2023-01-07T03:51:41.350Z,24.33
2023-01-07T03:54:08.468Z,24.45
2023-01-07T03:56:35.435Z,25.08
2023-01-07T03:59:02.463Z,23.42
2023-01-07T04:01:30.753Z,24.08
2023-01-07T04:03:58.038Z,24.50
2023-01-07T04:06:25.045Z,27.88
2023-01-07T04:08:52.022Z,33.33
2023-01-07T04:11:19.592Z,31.73
2023-01-07T04:13:46.519Z,28.45
2023-01-07T04:16:13.635Z,27.98
2023-01-07T04:18:40.607Z,24.88
2023-01-07T04:21:07.674Z,32.83
2023-01-07T04:23:34.918Z,28.30
2023-01-07T04:26:01.981Z,31.23
2023-01-07T04:28:28.967Z,53.05
2023-01-07T04:30:59.048Z,33.38
2023-01-07T04:33:26.337Z,33.20
2023-01-07T04:35:53.299Z,28.33
2023-01-07T04:38:20.423Z,27.85
2023-01-07T04:40:47.445Z,25.42
2023-01-07T04:43:14.534Z,29.63
2023-01-07T04:45:42.079Z,25.23
2023-01-07T04:48:09.319Z,25.05
2023-01-07T04:50:36.289Z,25.00
2023-01-07T04:53:03.489Z,24.25
2023-01-07T04:55:30.470Z,26.35
2023-01-07T04:57:57.619Z,25.67
2023-01-07T05:00:24.718Z,24.95
2023-01-07T05:02:51.741Z,24.92
2023-01-07T05:05:18.834Z,25.50
2023-01-07T05:07:46.457Z,25.38
2023-01-07T05:10:13.712Z,25.67
2023-01-07T05:12:40.805Z,25.65
2023-01-07T05:15:08.583Z,25.63
2023-01-07T05:17:35.750Z,24.55
2023-01-07T05:20:02.782Z,24.90
2023-01-07T05:22:29.793Z,25.13
2023-01-07T05:24:56.903Z,25.30
2023-01-07T05:27:23.887Z,24.80
2023-01-07T05:29:50.957Z,25.17
2023-01-07T05:32:17.976Z,23.95
2023-01-07T05:34:45.096Z,24.75
2023-01-07T05:37:12.197Z,25.52
2023-01-07T05:39:39.290Z,26.55
2023-01-07T05:42:06.434Z,25.85
2023-01-07T05:44:33.521Z,27.05
2023-01-07T05:47:00.553Z,27.15
2023-01-07T05:49:27.566Z,30.38
2023-01-07T05:51:54.684Z,25.65
2023-01-07T05:54:21.686Z,25.13
2023-01-07T05:56:48.806Z,24.85
2023-01-07T05:59:15.879Z,24.42
2023-01-07T06:01:44.269Z,24.83
2023-01-07T06:04:12.373Z,24.02
2023-01-07T06:06:39.547Z,24.02
2023-01-07T06:09:07.123Z,24.77
2023-01-07T06:11:34.199Z,24.65
2023-01-07T06:14:01.306Z,24.30
2023-01-07T06:16:28.399Z,24.88
2023-01-07T06:18:55.389Z,24.58
2023-01-07T06:21:22.507Z,23.50
2023-01-07T06:23:49.553Z,23.90
2023-01-07T06:26:16.659Z,24.33
2023-01-07T06:28:43.796Z,24.13
2023-01-07T06:31:11.526Z,24.35
2023-01-07T06:33:40.590Z,24.13
2023-01-07T06:36:08.313Z,24.25
2023-01-07T06:38:35.631Z,23.38
2023-01-07T06:41:02.767Z,23.30
2023-01-07T06:43:30.010Z,23.75
2023-01-07T06:45:57.263Z,24.00
2023-01-07T06:48:24.369Z,24.15
2023-01-07T06:50:51.413Z,24.60
2023-01-07T06:53:18.480Z,24.60
2023-01-07T06:55:49.904Z,25.08
2023-01-07T06:58:17.702Z,24.30
2023-01-07T07:00:45.223Z,25.33
2023-01-07T07:03:12.449Z,24.52
2023-01-07T07:05:39.669Z,26.17
2023-01-07T07:08:06.987Z,24.95
2023-01-07T07:10:34.316Z,26.80
2023-01-07T07:13:01.690Z,24.38
2023-01-07T07:15:28.918Z,25.77
2023-01-07T07:17:55.983Z,25.00
2023-01-07T07:20:23.048Z,26.20
2023-01-07T07:22:50.087Z,26.17
2023-01-07T07:25:17.310Z,24.67
2023-01-07T07:27:47.520Z,24.38
2023-01-07T07:30:15.712Z,23.85
2023-01-07T07:32:43.338Z,24.00
2023-01-07T07:35:11.273Z,24.05
2023-01-07T07:37:38.443Z,24.73
2023-01-07T07:40:06.596Z,22.85
2023-01-07T07:43:10.356Z,23.17
2023-01-07T07:45:43.648Z,23.00
2023-01-07T07:48:14.885Z,23.33
2023-01-07T07:50:42.138Z,22.85
2023-01-07T07:53:10.661Z,23.45
2023-01-07T07:55:38.832Z,22.55
2023-01-07T07:58:06.881Z,22.35
2023-01-07T08:00:33.905Z,22.98
2023-01-07T08:03:01.315Z,23.02
2023-01-07T08:05:28.924Z,22.25
2023-01-07T08:07:56.278Z,22.45
2023-01-07T08:10:23.707Z,21.35
2023-01-07T08:12:50.919Z,21.40
2023-01-07T08:15:18.108Z,21.60
2023-01-07T08:17:45.236Z,21.60
2023-01-07T08:20:12.801Z,21.38
2023-01-07T08:22:39.917Z,21.25
2023-01-07T08:25:07.442Z,20.65
2023-01-07T08:27:34.574Z,20.95
2023-01-07T08:30:01.529Z,21.75
2023-01-07T08:32:28.468Z,20.75
2023-01-07T08:34:56.258Z,21.25
2023-01-07T08:37:23.237Z,20.70
2023-01-07T08:39:50.180Z,20.95
2023-01-07T08:42:17.116Z,21.10
2023-01-07T08:44:44.146Z,20.33
2023-01-07T08:47:11.106Z,20.52
2023-01-07T08:49:38.086Z,20.13
2023-01-07T08:52:05.357Z,20.42
2023-01-07T08:54:32.298Z,19.48
2023-01-07T08:56:59.360Z,20.73
2023-01-07T08:59:26.369Z,19.48
2023-01-07T09:01:53.457Z,19.85
2023-01-07T09:04:20.580Z,20.10
2023-01-07T09:06:47.838Z,20.77
2023-01-07T09:09:16.713Z,20.70
2023-01-07T09:11:43.653Z,20.27
2023-01-07T09:14:10.579Z,18.27
2023-01-07T09:16:37.592Z,19.02
2023-01-07T09:19:04.721Z,18.85
2023-01-07T09:21:31.737Z,18.58
2023-01-07T09:23:58.757Z,18.15
2023-01-07T09:26:25.749Z,19.17
2023-01-07T09:28:52.703Z,18.13
2023-01-07T09:31:19.765Z,17.63
2023-01-07T09:33:46.731Z,18.60
2023-01-07T09:36:13.700Z,18.80
2023-01-07T09:38:40.778Z,18.50
2023-01-07T09:41:32.061Z,19.20
2023-01-07T09:44:18.064Z,21.98
2023-01-07T09:46:47.724Z,24.88
2023-01-07T09:49:19.658Z,21.50
2023-01-07T09:51:52.717Z,17.85
2023-01-07T09:54:33.999Z,18.17
2023-01-07T09:57:01.399Z,18.13
2023-01-07T09:59:28.828Z,17.75
2023-01-07T10:02:04.587Z,18.17
2023-01-07T10:04:38.748Z,18.50
2023-01-07T10:09:59.542Z,18.58
2023-01-07T10:12:58.761Z,17.75
2023-01-07T10:15:41.739Z,18.40
2023-01-07T10:18:39.523Z,18.13
2023-01-07T10:21:24.309Z,18.08
2023-01-07T10:23:59.325Z,18.38
2023-01-07T10:26:43.059Z,17.90
2023-01-07T10:29:20.020Z,17.40
2023-01-07T10:31:48.127Z,16.13
2023-01-07T10:34:22.127Z,16.17
2023-01-07T10:37:03.064Z,15.07
2023-01-07T10:39:44.239Z,14.48
2023-01-07T10:42:40.835Z,14.93
2023-01-07T10:45:19.637Z,14.27
2023-01-07T10:48:10.627Z,14.38
2023-01-07T10:51:03.352Z,14.15
2023-01-07T10:53:55.100Z,15.00
2023-01-07T10:56:43.089Z,15.55
2023-01-07T10:59:17.461Z,15.00
2023-01-07T11:01:50.913Z,14.98
2023-01-07T11:04:18.356Z,15.00
2023-01-07T11:06:48.515Z,15.93
2023-01-07T11:09:19.765Z,16.80
2023-01-07T11:11:48.381Z,25.98
2023-01-07T11:14:29.079Z,17.00
2023-01-07T11:17:22.080Z,16.75
2023-01-07T11:19:51.641Z,25.40
2023-01-07T11:22:27.423Z,20.80
2023-01-07T11:24:55.365Z,22.13
2023-01-07T11:27:25.480Z,20.17
2023-01-07T11:30:19.845Z,16.40
2023-01-07T11:33:05.417Z,16.80
2023-01-07T11:35:32.646Z,15.60
2023-01-07T11:38:00.477Z,15.55
2023-01-07T11:40:32.823Z,14.15
2023-01-07T11:43:17.903Z,14.63
2023-01-07T11:46:19.297Z,15.13
2023-01-07T11:48:54.188Z,14.38
2023-01-07T11:51:22.830Z,14.18
2023-01-07T11:53:49.789Z,14.30
2023-01-07T11:56:34.136Z,15.55
2023-01-07T11:59:21.360Z,16.05
2023-01-07T12:02:02.003Z,15.50
2023-01-07T12:04:33.278Z,16.10
2023-01-07T12:07:13.922Z,15.50
2023-01-07T12:09:45.427Z,16.08
2023-01-07T12:12:34.876Z,15.95
2023-01-07T12:15:06.099Z,16.52
2023-01-07T12:17:35.360Z,16.00
2023-01-07T12:20:05.173Z,15.13
2023-01-07T12:22:58.755Z,16.10
2023-01-07T12:25:33.672Z,17.20
2023-01-07T12:28:12.345Z,16.30
2023-01-07T12:31:18.368Z,15.85
2023-01-07T12:33:57.451Z,14.60
2023-01-07T12:36:50.269Z,14.50
2023-01-07T12:39:38.810Z,14.40
2023-01-07T12:44:57.559Z,16.25
2023-01-07T12:47:35.023Z,14.77
2023-01-07T12:50:13.541Z,14.93
2023-01-07T12:52:48.563Z,14.98
2023-01-07T12:55:18.843Z,15.75
2023-01-07T12:58:00.472Z,15.05
2023-01-07T13:00:31.776Z,14.82
2023-01-07T13:03:25.307Z,15.40
2023-01-07T13:05:58.676Z,15.73
2023-01-07T13:08:43.528Z,15.57
2023-01-07T13:11:41.712Z,16.13
2023-01-07T13:14:18.714Z,15.68
2023-01-07T13:16:45.864Z,15.38
2023-01-07T13:19:12.877Z,15.93
2023-01-07T13:21:41.617Z,15.98
2023-01-07T13:24:55.950Z,15.70
2023-01-07T13:27:36.012Z,16.95
2023-01-07T13:30:15.261Z,16.50
2023-01-07T13:33:05.629Z,15.70
2023-01-07T13:36:10.151Z,16.08
2023-01-07T13:39:02.855Z,17.83
2023-01-07T13:42:06.575Z,17.23
2023-01-07T13:44:48.310Z,17.55
2023-01-07T13:47:19.764Z,16.92
2023-01-07T13:49:58.562Z,17.00
2023-01-07T13:52:29.267Z,17.00
2023-01-07T13:54:59.507Z,16.42
2023-01-07T13:57:26.377Z,17.58
2023-01-07T13:59:56.104Z,17.17
2023-01-07T14:02:25.149Z,16.42
2023-01-07T14:05:22.874Z,16.52
2023-01-07T14:07:54.669Z,17.85
2023-01-07T14:10:32.744Z,17.45
2023-01-07T14:13:21.234Z,18.13
2023-01-07T14:16:19.277Z,17.33
2023-01-07T14:18:55.533Z,17.90
2023-01-07T14:21:43.713Z,17.60
2023-01-07T14:24:34.570Z,17.65
2023-01-07T14:27:27.554Z,17.85
2023-01-07T14:30:02.977Z,18.65
2023-01-07T14:32:38.308Z,19.88
2023-01-07T14:35:11.206Z,18.90
2023-01-07T14:37:47.102Z,19.08
2023-01-07T14:40:26.021Z,19.02
2023-01-07T14:42:54.084Z,18.83
2023-01-07T14:45:39.648Z,18.92
2023-01-07T14:48:10.083Z,18.20
2023-01-07T14:50:46.987Z,18.17
2023-01-07T14:53:49.330Z,18.13
2023-01-07T14:56:58.725Z,18.33
2023-01-07T14:59:40.347Z,18.48
2023-01-07T15:02:16.213Z,20.20
2023-01-07T15:05:02.692Z,23.40
2023-01-07T15:07:34.053Z,26.92
2023-01-07T15:10:30.959Z,29.48
2023-01-07T15:13:18.407Z,21.60
2023-01-07T15:16:02.669Z,21.83
2023-01-07T15:21:25.492Z,20.02
2023-01-07T15:24:22.128Z,20.33
2023-01-07T15:27:06.197Z,20.42
2023-01-07T15:29:48.078Z,20.63
2023-01-07T15:32:29.706Z,19.98
2023-01-07T15:34:57.630Z,22.58
2023-01-07T15:37:25.141Z,21.30
2023-01-07T15:39:57.315Z,24.30
2023-01-07T15:42:27.400Z,21.23
2023-01-07T15:44:59.442Z,20.52
2023-01-07T15:47:43.821Z,21.33
2023-01-07T15:52:54.333Z,19.92
2023-01-07T15:55:27.881Z,21.00
2023-01-07T15:58:06.132Z,21.40
2023-01-07T16:00:34.975Z,22.10
2023-01-07T16:03:03.813Z,24.15
2023-01-07T16:05:31.455Z,29.25
2023-01-07T16:08:02.371Z,27.05
2023-01-07T16:10:32.617Z,27.10
2023-01-07T16:13:02.454Z,25.75
2023-01-07T16:15:33.380Z,24.70
2023-01-07T16:18:09.672Z,24.10
2023-01-07T16:20:41.085Z,24.38
2023-01-07T16:23:11.039Z,24.45
2023-01-07T16:25:43.566Z,24.52
2023-01-07T16:28:19.890Z,24.45
2023-01-07T16:30:48.642Z,23.13
2023-01-07T16:33:24.724Z,22.63
2023-01-07T16:35:56.397Z,23.42
2023-01-07T16:38:24.869Z,23.20
2023-01-07T16:40:52.916Z,23.17
2023-01-07T16:43:43.507Z,23.88
2023-01-07T16:46:18.981Z,23.00
2023-01-07T16:48:47.601Z,24.98
2023-01-07T16:51:34.443Z,25.05
2023-01-07T16:54:23.579Z,26.38
2023-01-07T16:56:56.877Z,24.45
2023-01-07T16:59:31.216Z,24.67
2023-01-07T17:02:00.458Z,24.17
2023-01-07T17:04:30.264Z,23.48
2023-01-07T17:07:01.681Z,23.80
2023-01-07T17:09:37.127Z,24.42
2023-01-07T17:12:05.313Z,25.35
2023-01-07T17:14:36.735Z,24.20
2023-01-07T17:17:29.703Z,23.77
2023-01-07T17:20:11.938Z,24.65
2023-01-07T17:22:39.791Z,24.77
2023-01-07T17:25:07.304Z,24.00
2023-01-07T17:27:39.267Z,25.27
2023-01-07T17:30:07.133Z,25.15
2023-01-07T17:32:37.630Z,25.27
2023-01-07T17:35:05.089Z,25.38
2023-01-07T17:37:32.916Z,24.48
2023-01-07T17:39:59.909Z,24.85
2023-01-07T17:42:51.113Z,24.63
2023-01-07T17:45:20.277Z,25.02
2023-01-07T17:47:49.754Z,25.30
2023-01-07T17:50:18.511Z,25.15
2023-01-07T17:52:49.935Z,25.00
2023-01-07T17:55:26.664Z,25.55
2023-01-07T17:57:53.781Z,25.20
2023-01-07T18:00:23.759Z,24.60
2023-01-07T18:02:51.310Z,24.30
2023-01-07T18:05:24.132Z,24.88
2023-01-07T18:07:52.830Z,26.27
2023-01-07T18:10:25.113Z,25.92
2023-01-07T18:12:52.106Z,28.25
2023-01-07T18:15:28.024Z,26.02
2023-01-07T18:17:54.998Z,28.10
2023-01-07T18:20:23.004Z,27.83
2023-01-07T18:22:50.692Z,26.30
2023-01-07T18:25:20.932Z,26.52
2023-01-07T18:27:49.684Z,27.23
2023-01-07T18:30:19.339Z,28.63
2023-01-07T18:32:47.088Z,28.20
2023-01-07T18:35:14.782Z,28.00
2023-01-07T18:37:41.913Z,27.92
2023-01-07T18:40:10.151Z,28.40
2023-01-07T18:42:37.398Z,27.40
2023-01-07T18:45:05.838Z,30.25
2023-01-07T18:47:33.209Z,30.17
2023-01-07T18:50:00.325Z,30.10
2023-01-07T18:52:28.198Z,30.38
2023-01-07T18:54:55.270Z,32.58
2023-01-07T18:57:22.282Z,30.80
2023-01-07T18:59:49.256Z,31.58
2023-01-07T19:02:18.928Z,31.90
2023-01-07T19:04:48.191Z,32.78
2023-01-07T19:07:15.874Z,33.28
2023-01-07T19:09:43.070Z,33.13
2023-01-07T19:12:11.464Z,31.42
2023-01-07T19:14:39.582Z,32.08
2023-01-07T19:17:07.844Z,30.63
2023-01-07T19:19:47.377Z,32.35
2023-01-07T19:22:16.486Z,40.10
2023-01-07T19:24:44.419Z,37.50
2023-01-07T19:27:12.730Z,45.90
2023-01-07T19:29:39.732Z,40.40
2023-01-07T19:32:06.977Z,37.22
2023-01-07T19:34:34.062Z,36.88
2023-01-07T19:37:01.064Z,49.88
2023-01-07T19:39:28.231Z,39.75
2023-01-07T19:41:55.434Z,35.67
2023-01-07T19:44:22.462Z,38.38
2023-01-07T19:46:49.599Z,38.33
2023-01-07T19:49:16.583Z,43.10
2023-01-07T19:51:44.088Z,48.78
2023-01-07T19:54:15.439Z,42.50
2023-01-07T19:56:43.832Z,39.40
2023-01-07T19:59:11.260Z,47.92
2023-01-07T20:01:39.118Z,42.20
2023-01-07T20:04:08.299Z,44.53
2023-01-07T20:06:41.288Z,52.75
2023-01-07T20:09:11.162Z,44.00
2023-01-07T20:11:39.464Z,41.20
2023-01-07T20:14:07.833Z,33.63
2023-01-07T20:16:36.863Z,34.83
2023-01-07T20:19:04.916Z,33.97
2023-01-07T20:21:34.588Z,34.05
2023-01-07T20:24:01.587Z,33.20
2023-01-07T20:26:31.141Z,32.83
2023-01-07T20:28:59.695Z,32.80
2023-01-07T20:31:28.918Z,33.65
2023-01-07T20:33:56.047Z,32.95
2023-01-07T20:36:26.739Z,32.50
2023-01-07T20:38:54.180Z,34.75
2023-01-07T20:41:23.547Z,33.50
2023-01-07T20:43:53.565Z,34.20
2023-01-07T20:46:21.291Z,33.13
2023-01-07T20:48:48.821Z,34.53
2023-01-07T20:51:16.574Z,34.53
2023-01-07T20:53:44.508Z,32.65
2023-01-07T20:56:12.579Z,35.65
2023-01-07T20:58:40.022Z,35.25
2023-01-07T21:01:14.405Z,35.53
2023-01-07T21:03:42.390Z,34.75
2023-01-07T21:06:11.020Z,34.45
2023-01-07T21:08:38.213Z,36.30
2023-01-07T21:11:34.625Z,36.08
2023-01-07T21:14:01.828Z,35.40
2023-01-07T21:16:29.206Z,34.65
2023-01-07T21:18:56.985Z,35.83
2023-01-07T21:21:25.413Z,34.28
2023-01-07T21:23:55.935Z,36.05
2023-01-07T21:26:23.930Z,35.00
2023-01-07T21:28:55.808Z,33.97
2023-01-07T21:31:24.049Z,33.60
2023-01-07T21:33:54.444Z,33.45
2023-01-07T21:36:21.635Z,33.83
2023-01-07T21:38:56.357Z,34.15
2023-01-07T21:41:24.218Z,34.38
2023-01-07T21:43:51.618Z,33.72
2023-01-07T21:46:18.744Z,35.00
2023-01-07T21:48:47.189Z,33.75
2023-01-07T21:51:23.029Z,35.03
2023-01-07T21:53:52.319Z,34.25
2023-01-07T21:56:19.976Z,35.70
2023-01-07T21:58:47.843Z,34.30
2023-01-07T22:01:16.144Z,34.83
2023-01-07T22:03:48.466Z,35.33
2023-01-07T22:06:23.638Z,35.05
2023-01-07T22:08:55.329Z,34.30
2023-01-07T22:11:22.836Z,34.78
2023-01-07T22:13:54.672Z,34.58
2023-01-07T22:16:23.399Z,34.67
2023-01-07T22:18:50.717Z,35.05
2023-01-07T22:21:18.661Z,34.95
2023-01-07T22:23:47.483Z,35.65
2023-01-07T22:26:16.952Z,35.92
2023-01-07T22:28:47.461Z,35.72
2023-01-07T22:31:26.487Z,34.97
2023-01-07T22:33:53.600Z,35.60
2023-01-07T22:36:31.363Z,35.13
2023-01-07T22:39:03.159Z,35.97
2023-01-07T22:41:31.999Z,35.50
2023-01-07T22:44:02.624Z,35.40
2023-01-07T22:46:32.464Z,34.78
2023-01-07T22:48:59.792Z,35.88
2023-01-07T22:51:38.898Z,35.33
2023-01-07T22:54:07.096Z,34.63
2023-01-07T22:56:35.260Z,35.65
2023-01-07T22:59:02.246Z,35.67
2023-01-07T23:01:29.294Z,35.75
2023-01-07T23:03:56.439Z,35.28
2023-01-07T23:06:23.677Z,34.40
2023-01-07T23:08:50.663Z,36.22
2023-01-07T23:11:36.124Z,35.03
2023-01-07T23:14:03.853Z,35.78
2023-01-07T23:16:30.950Z,34.63
2023-01-07T23:18:58.049Z,34.65
2023-01-07T23:21:25.051Z,34.58
2023-01-07T23:23:51.995Z,34.55
2023-01-07T23:26:18.993Z,34.70
2023-01-07T23:28:45.975Z,34.67
2023-01-07T23:31:12.991Z,33.40
2023-01-07T23:33:40.056Z,34.67
2023-01-07T23:36:09.615Z,34.97
2023-01-07T23:38:37.275Z,34.15
2023-01-07T23:41:09.192Z,34.53
2023-01-07T23:43:36.813Z,33.72
2023-01-07T23:46:05.548Z,33.45
2023-01-07T23:48:34.785Z,34.40
2023-01-07T23:51:13.624Z,33.30
2023-01-07T23:53:41.117Z,34.13
2023-01-07T23:56:08.930Z,34.55
2023-01-07T23:58:36.661Z,34.97
